Tropical Cyclones
[Index]
Main Index Home Page Stock Weather Photos Extreme Storms Discussion Storm News and Storm Chasing Reports Tropical Cyclones / Hurricanes / Typhoons Weather Data and Links Wild Fires / Bushfires Weather Observation Techniques Weather Picture Catalogue Tornado Pictures and Reports Stock Video Footage and DVDs for sale
Season 2003-2004 Tropical Cyclone EVAN Track Map
Season 2003-2004 Summaries (Operational Data): [AU] [SIO] [SPAC] [SH]
<<- Previous TC | 2003-2004 Season | Next TC ->>

click for intensity scale information  Lat/long Grid: Show Hide

 Date Labels: Show Hide

Operational Tropical Cyclone Data : JTWC Advisories

Name: EVAN
Number: 0415

29 Feb 2004 00:00 UTC to 06 Mar 2004 04:00 UTC

    date/time    lat    long     hPa   cat  kts
2004-02-29 00   14.0   140.0    1003         25          
2004-02-29 06   14.0   140.0    1002         25          
2004-02-29 12   14.0   139.7    1002         25          
2004-02-29 18   13.3   139.3    1000         30          
2004-03-01 00   13.3   138.7    1000         30          
2004-03-01 06   13.9   137.5     994    1    35          
2004-03-01 12   13.9   136.5     994    1    40          
2004-03-01 18   14.0   135.5                 30          
2004-03-02 00   14.1   134.8                             
2004-03-02 06   14.3   134.6                             
2004-03-03 04   14.5   129.0    1000         30          
2004-03-03 10   14.1   128.4    1000         30          
2004-03-03 16   14.3   126.6    1000         30          
2004-03-03 22   14.4   126.0    1000         30          
2004-03-04 04   14.7   125.0    1000         30          
2004-03-04 10   15.4   124.0     999         30          
2004-03-04 16   15.8   122.9     999         30          
2004-03-04 22   16.2   122.0     999         30          
2004-03-05 01   16.3   121.5     999         30          
2004-03-05 04   16.5   121.0    1000         30          
2004-03-05 10   16.5   120.0    1000         25          
2004-03-05 16   16.6   119.0    1000         25          
2004-03-05 22   17.0   118.2    1000         25          
2004-03-06 04   17.6   117.5    1000         25          
Winds are 10-min average.

Tropical cyclone tracks developed by Michael Bath using operational warnings and advisories and Google Maps.


[Australian Severe Weather index] [Copyright Notice] [Email Contacts] [Search This Site] [Privacy Policy]
Document: tropical_cyclone_evan.htm Updated: 28 May 2013